Steven Brobbey

Olheiro - PSV
3 Dez 2028
Domingo
Processo

Personalidade

Adaptabilidade (9) Ambição (7) Controvérsia (12) Lealdade (16) Pressão (16) Profissionalismo (7) Espírito Esportivo (5) Temperamento (2)

Perfil

Estilo de Treinamento Democrático
Licença Nacional A
Determinação 15
Gestão de Pessoas 6
Motivação 16
Disciplina 13
Satisfação no Trabalho
96%
Fadiga
0%
Função Olheiro
Salário 18.8K p/s
Contrato 14.03.2029

Desempenho

Comportamento Bom
Eficácia do Treinamento
58%
Desenvolvimento do Jogador
45%
Prevenção de Lesões
40%
Implementação Tática
80%

Eventos Recentes

Participou de uma reunião de recrutamento agora
Recomendou um alvo de transferência agora
Recomendou um alvo de transferência agora
Participou de uma reunião de recrutamento 7d atrás
Recomendou um alvo de transferência 7d atrás
Recomendou um alvo de transferência 7d atrás
Recomendou um alvo de transferência 7d atrás
Recomendou um alvo de transferência 7d atrás

Monitorando agora

69
Jogador Clube Status Habilidade Confiança Observado Última observação Último voto
Ties Wieggers De Graafschap Ativo 126 / 126 30% 1 / 1m 08.11.2028 -
Tyrique Mercera Groningen Ativo 126 / 118 86% 1 21.08.2028 Aprovar
Temirlan Anarbekov Kairat Ativo 123 / 127 40% 1 17.08.2028 -
Alex Kouto Horio Pisano Nagoya Grampus Ativo 119 / 138 40% 1 17.08.2028 -
Valerio Boffelli Cavese Ativo 114 / 117 40% 2 16.08.2028 -
Muhammadyusuf Sobirov Bunyodkor Ativo 113 / 133 40% 1 16.08.2028 -
Alexey Ploschadny Noah Ativo 124 / 134 40% 1 16.08.2028 -
Karl Etta Eyong Real Sociedad Ativo 154 / 154 40% 1 14.08.2028 -
Lorenzo Colombo Genoa Ativo 145 / 139 40% 1 14.08.2028 -
Cristian Santander Barranquilla Ativo 120 / 119 40% 1 07.08.2028 -
Guillaume Restes Toulouse FC Perdido 149 / 157 40% 1 24.07.2028 -
Robert Cook Accrington Stanley Ativo 114 / 112 40% 1 24.07.2028 -
Jorthy Mokio ADO Den Haag Ativo 136 / 147 40% 1 17.07.2028 -
Riquelme Thompson-Jones Accrington Stanley Negociando 115 / 121 40% 1 17.07.2028 -
Simone Suppa Virtus Verona Ativo 88 / 95 40% 1 17.07.2028 -
Ryunosuke Sato Eibar Ativo 139 / 132 40% 9 10.07.2028 -
Héctor Fort Real Sociedad Ativo 148 / 154 40% 7 10.07.2028 -
Aarón Ochoa Málaga Ativo 120 / 121 40% 3 10.07.2028 -
Joaquín Panichelli Twente Relatório pronto 148 / 146 86% 1 03.07.2028 -
Tristan van Gilst Heracles Relatório pronto 126 / 130 86% 1 26.06.2028 -
Pau Cubarsí Real Sociedad Ativo 160 / 166 40% 1 21.06.2028 -
Cheveyo Tsawa Club Brugge Ativo 126 / 137 40% 1 21.06.2028 -
Mohammed El Âdfaoui Westerlo Ativo 118 / 128 40% 1 21.06.2028 -
Esmir Bajraktarević De Graafschap Relatório pronto 131 / 139 86% 1 12.06.2028 -
Gaoussou Diarra Heerenveen Perdido 128 / 123 86% 1 07.06.2028 -
Illaijh de Ruijter ADO Den Haag Relatório pronto 120 / 124 86% 1 04.06.2028 -
Ricardo Pepi Mallorca Ativo 150 / 147 40% 2 01.06.2028 -
Pau Víctor Braga Ativo 146 / 148 40% 1 01.06.2028 -
Jayden Danns Bradford City Ativo 138 / 137 40% 1 01.06.2028 -
Nicolò Tresoldi Club Brugge Ativo 138 / 139 40% 1 31.05.2028 -
Ryan McAidoo Oldham Athletic Ativo 123 / 137 40% 5 29.05.2028 -
Rio Ngumoha Plymouth Argyle Ativo 144 / 149 40% 2 29.05.2028 -
Mateus Mané Burnley Ativo 144 / 152 40% 4 28.05.2028 -
Babis Kostoulas Oxford United Ativo 141 / 138 40% 4 27.05.2028 -
Trey Nyoni Rotherham United Ativo 141 / 137 40% 4 27.05.2028 -
Eli Junior Kroupi Bournemouth Ativo 147 / 149 40% 4 26.05.2028 -
Amin Nabizada Exeter City Ativo 111 / 119 40% 4 25.05.2028 -
Ibrahim Fullah Charlton Athletic Ativo 120 / 128 40% 2 25.05.2028 -
Kevin Fulham Ativo 157 / 156 40% 2 25.05.2028 -
Shea Lacey Crystal Palace Ativo 132 / 137 40% 1 23.05.2028 -
Josh Nichols Oldham Athletic Ativo 120 / 124 40% 7 21.05.2028 -
Luca Williams-Barnett Walsall Ativo 125 / 124 40% 5 20.05.2028 -
Ez Abde Betis Ativo 159 / 156 40% 2 20.05.2028 -
Ben Gannon Doak Charlton Athletic Ativo 153 / 152 40% 1 20.05.2028 -
Honest Ahanor Atalanta Ativo 137 / 140 40% 5 17.05.2028 -
Gabe Forsyth Colchester United Ativo 111 / 110 40% 2 17.05.2028 -
Omar Khedr Gillingham Ativo 116 / 121 40% 4 16.05.2028 -
Jorge Salinas Racing Santander Ativo 135 / 145 40% 2 15.05.2028 -
Ryan Kavuma-McQueen Accrington Stanley Ativo 119 / 126 40% 6 14.05.2028 -
Jan Bürger Northampton Town Ativo 123 / 131 40% 4 13.05.2028 -
Jonathan Dubasin Osasuna Ativo 151 / 156 40% 1 11.05.2028 -
Jaidon Anthony Derby County Ativo 142 / 131 40% 1 10.05.2028 -
Malick Fofana Sunderland Ativo 151 / 155 40% 1 10.05.2028 -
Iliman N'Diaye Everton Ativo 163 / 168 40% 1 10.05.2028 -
Hugo Camberos Dorados Ativo 136 / 142 40% 4 07.05.2028 -
Ben Broggio Mansfield Town Ativo 110 / 125 40% 5 07.05.2028 -
Jan Virgili Club Brugge Ativo 137 / 140 40% 2 06.05.2028 -
Marc Bernal Sevilla Ativo 146 / 149 40% 1 06.05.2028 -
Gilberto Mora Guadalajara Ativo 141 / 140 40% 4 03.05.2028 -
Sindre Walle Egeli Udinese Ativo 138 / 145 40% 4 01.05.2028 -
Mustafa Hekimoğlu Antalyaspor Ativo 133 / 129 40% 1 30.04.2028 -
Igor Tyjon Barrow AFC Ativo 117 / 131 40% 1 30.04.2028 -
Gabriel Mec Feirense Ativo 125 / 130 40% 1 19.04.2028 -
Julien Duranville Olympique Lyonnais Ativo 138 / 142 40% 2 14.04.2028 -
Oscar Schwartau Norwich City Ativo 130 / 141 40% 1 09.04.2028 -
Luca Meirelles Kudrivka Ativo 120 / 126 40% 1 06.04.2028 -
Mexx Meerdink AZ Ativo 132 / 120 86% 1 18.01.2027 Aprovar
Victor Jensen Utrecht Ativo 120 / 134 83% 1 24.08.2026 Aprovar
Alonzo Engwanda Utrecht Ativo 122 / 125 83% 1 17.08.2026 Aprovar